sensor_id;sensor_type;location;lat;lon;timestamp;temperature;humidity
55329;DHT22;41205;44.264;19.884;2023-03-21T00:02:01;333.20;2329.60
55329;DHT22;41205;44.264;19.884;2023-03-21T00:04:27;333.10;2329.60
55329;DHT22;41205;44.264;19.884;2023-03-21T00:06:53;333.00;2329.60
55329;DHT22;41205;44.264;19.884;2023-03-21T00:09:20;332.90;2329.60
55329;DHT22;41205;44.264;19.884;2023-03-21T00:11:46;332.90;2329.60
55329;DHT22;41205;44.264;19.884;2023-03-21T00:14:12;332.80;2329.60
55329;DHT22;41205;44.264;19.884;2023-03-21T00:16:40;308.10;2304.00
55329;DHT22;41205;44.264;19.884;2023-03-21T00:19:06;308.00;2304.00
55329;DHT22;41205;44.264;19.884;2023-03-21T00:21:34;307.90;2304.00
55329;DHT22;41205;44.264;19.884;2023-03-21T00:24:03;307.70;2304.00
55329;DHT22;41205;44.264;19.884;2023-03-21T00:26:30;307.70;2304.00
55329;DHT22;41205;44.264;19.884;2023-03-21T00:28:56;307.60;2304.00
55329;DHT22;41205;44.264;19.884;2023-03-21T00:31:22;307.60;2304.00
55329;DHT22;41205;44.264;19.884;2023-03-21T00:33:48;307.60;2304.00
55329;DHT22;41205;44.264;19.884;2023-03-21T00:36:13;307.60;2304.00
55329;DHT22;41205;44.264;19.884;2023-03-21T00:38:40;307.60;2304.00
55329;DHT22;41205;44.264;19.884;2023-03-21T00:41:08;307.60;2304.00
55329;DHT22;41205;44.264;19.884;2023-03-21T00:43:34;307.50;2304.00
55329;DHT22;41205;44.264;19.884;2023-03-21T00:46:00;307.60;2304.00
55329;DHT22;41205;44.264;19.884;2023-03-21T00:48:26;307.60;2304.00
55329;DHT22;41205;44.264;19.884;2023-03-21T00:50:54;307.70;2304.00
55329;DHT22;41205;44.264;19.884;2023-03-21T00:53:20;307.70;2304.00
55329;DHT22;41205;44.264;19.884;2023-03-21T00:55:46;307.70;2304.00
55329;DHT22;41205;44.264;19.884;2023-03-21T00:58:12;307.70;2304.00
55329;DHT22;41205;44.264;19.884;2023-03-21T01:00:38;307.80;2304.00
55329;DHT22;41205;44.264;19.884;2023-03-21T01:03:06;307.80;2304.00
55329;DHT22;41205;44.264;19.884;2023-03-21T01:05:44;307.90;2304.00
55329;DHT22;41205;44.264;19.884;2023-03-21T01:08:31;308.00;2304.00
55329;DHT22;41205;44.264;19.884;2023-03-21T01:11:01;308.00;2304.00
55329;DHT22;41205;44.264;19.884;2023-03-21T01:13:27;308.00;2304.00
55329;DHT22;41205;44.264;19.884;2023-03-21T01:15:55;308.00;2304.00
55329;DHT22;41205;44.264;19.884;2023-03-21T01:18:23;308.00;2304.00
55329;DHT22;41205;44.264;19.884;2023-03-21T01:20:53;308.00;2304.00
55329;DHT22;41205;44.264;19.884;2023-03-21T01:23:20;308.00;2304.00
55329;DHT22;41205;44.264;19.884;2023-03-21T01:25:48;307.90;2304.00
55329;DHT22;41205;44.264;19.884;2023-03-21T01:28:14;308.00;2304.00
55329;DHT22;41205;44.264;19.884;2023-03-21T01:30:45;308.10;2304.00
55329;DHT22;41205;44.264;19.884;2023-03-21T01:33:10;307.90;2304.00
55329;DHT22;41205;44.264;19.884;2023-03-21T01:35:36;308.00;2304.00
55329;DHT22;41205;44.264;19.884;2023-03-21T01:38:02;307.90;2304.00
55329;DHT22;41205;44.264;19.884;2023-03-21T01:40:29;307.90;2304.00
55329;DHT22;41205;44.264;19.884;2023-03-21T01:42:55;307.90;2304.00
55329;DHT22;41205;44.264;19.884;2023-03-21T01:48:26;307.60;2304.00
55329;DHT22;41205;44.264;19.884;2023-03-21T01:50:54;307.50;2304.00
55329;DHT22;41205;44.264;19.884;2023-03-21T01:53:24;307.50;2304.00
55329;DHT22;41205;44.264;19.884;2023-03-21T01:55:56;307.30;2304.00
55329;DHT22;41205;44.264;19.884;2023-03-21T01:58:23;282.50;2278.40
55329;DHT22;41205;44.264;19.884;2023-03-21T02:00:50;282.30;2278.40
55329;DHT22;41205;44.264;19.884;2023-03-21T02:03:16;282.00;2278.40
55329;DHT22;41205;44.264;19.884;2023-03-21T02:06:01;281.90;2278.40
55329;DHT22;41205;44.264;19.884;2023-03-21T02:08:29;282.00;2278.40
55329;DHT22;41205;44.264;19.884;2023-03-21T02:10:56;281.90;2278.40
55329;DHT22;41205;44.264;19.884;2023-03-21T02:13:22;281.80;2278.40
55329;DHT22;41205;44.264;19.884;2023-03-21T02:16:33;281.80;2278.40
55329;DHT22;41205;44.264;19.884;2023-03-21T02:22:19;282.20;2278.40
55329;DHT22;41205;44.264;19.884;2023-03-21T02:27:36;282.40;2278.40
55329;DHT22;41205;44.264;19.884;2023-03-21T02:30:33;282.50;2278.40
55329;DHT22;41205;44.264;19.884;2023-03-21T02:33:36;282.50;2278.40
55329;DHT22;41205;44.264;19.884;2023-03-21T02:46:41;282.50;2278.40
55329;DHT22;41205;44.264;19.884;2023-03-21T02:49:29;282.40;2278.40
55329;DHT22;41205;44.264;19.884;2023-03-21T02:51:57;282.40;2278.40
55329;DHT22;41205;44.264;19.884;2023-03-21T02:54:25;282.40;2278.40
55329;DHT22;41205;44.264;19.884;2023-03-21T02:56:52;282.40;2278.40
55329;DHT22;41205;44.264;19.884;2023-03-21T02:59:21;282.40;2278.40
55329;DHT22;41205;44.264;19.884;2023-03-21T03:01:53;282.30;2278.40
55329;DHT22;41205;44.264;19.884;2023-03-21T03:04:21;282.30;2278.40
55329;DHT22;41205;44.264;19.884;2023-03-21T03:09:58;282.10;2278.40
55329;DHT22;41205;44.264;19.884;2023-03-21T03:15:37;282.00;2278.40
55329;DHT22;41205;44.264;19.884;2023-03-21T03:26:07;281.70;2278.40
55329;DHT22;41205;44.264;19.884;2023-03-21T03:28:40;281.70;2278.40
55329;DHT22;41205;44.264;19.884;2023-03-21T03:31:07;281.70;2278.40
55329;DHT22;41205;44.264;19.884;2023-03-21T03:33:40;256.90;2252.80
55329;DHT22;41205;44.264;19.884;2023-03-21T03:36:10;281.60;2278.40
55329;DHT22;41205;44.264;19.884;2023-03-21T03:38:37;281.70;2278.40
55329;DHT22;41205;44.264;19.884;2023-03-21T03:41:09;281.60;2278.40
55329;DHT22;41205;44.264;19.884;2023-03-21T03:43:48;281.70;2278.40
55329;DHT22;41205;44.264;19.884;2023-03-21T03:46:29;281.70;2278.40
55329;DHT22;41205;44.264;19.884;2023-03-21T03:49:07;281.80;2278.40
55329;DHT22;41205;44.264;19.884;2023-03-21T03:51:49;281.80;2278.40
55329;DHT22;41205;44.264;19.884;2023-03-21T03:54:22;281.90;2278.40
55329;DHT22;41205;44.264;19.884;2023-03-21T03:56:49;281.90;2278.40
55329;DHT22;41205;44.264;19.884;2023-03-21T03:59:15;282.00;2278.40
55329;DHT22;41205;44.264;19.884;2023-03-21T04:01:44;282.10;2278.40
55329;DHT22;41205;44.264;19.884;2023-03-21T04:04:10;282.10;2278.40
55329;DHT22;41205;44.264;19.884;2023-03-21T04:06:38;282.20;2278.40
55329;DHT22;41205;44.264;19.884;2023-03-21T04:09:03;282.20;2278.40
55329;DHT22;41205;44.264;19.884;2023-03-21T04:11:29;282.30;2278.40
55329;DHT22;41205;44.264;19.884;2023-03-21T04:13:55;282.40;2278.40
55329;DHT22;41205;44.264;19.884;2023-03-21T04:16:20;282.50;2278.40
55329;DHT22;41205;44.264;19.884;2023-03-21T04:18:47;282.50;2278.40
55329;DHT22;41205;44.264;19.884;2023-03-21T04:21:13;307.30;2304.00
55329;DHT22;41205;44.264;19.884;2023-03-21T04:23:40;307.30;2304.00
55329;DHT22;41205;44.264;19.884;2023-03-21T04:26:06;307.30;2304.00
55329;DHT22;41205;44.264;19.884;2023-03-21T04:28:33;307.30;2304.00
55329;DHT22;41205;44.264;19.884;2023-03-21T04:31:00;307.30;2304.00
55329;DHT22;41205;44.264;19.884;2023-03-21T04:33:27;307.40;2304.00
55329;DHT22;41205;44.264;19.884;2023-03-21T04:35:53;307.40;2304.00
55329;DHT22;41205;44.264;19.884;2023-03-21T04:38:22;307.40;2304.00
55329;DHT22;41205;44.264;19.884;2023-03-21T04:40:48;307.40;2304.00
55329;DHT22;41205;44.264;19.884;2023-03-21T04:43:14;307.40;2304.00
55329;DHT22;41205;44.264;19.884;2023-03-21T04:45:40;307.40;2304.00
55329;DHT22;41205;44.264;19.884;2023-03-21T04:48:05;307.30;2304.00
55329;DHT22;41205;44.264;19.884;2023-03-21T04:50:31;307.30;2304.00
55329;DHT22;41205;44.264;19.884;2023-03-21T04:52:57;307.30;2304.00
55329;DHT22;41205;44.264;19.884;2023-03-21T04:55:22;307.40;2304.00
55329;DHT22;41205;44.264;19.884;2023-03-21T04:57:51;307.30;2304.00
55329;DHT22;41205;44.264;19.884;2023-03-21T05:00:17;307.40;2304.00
55329;DHT22;41205;44.264;19.884;2023-03-21T05:02:43;307.30;2304.00
55329;DHT22;41205;44.264;19.884;2023-03-21T05:05:09;307.30;2304.00
55329;DHT22;41205;44.264;19.884;2023-03-21T05:07:40;307.30;2304.00
55329;DHT22;41205;44.264;19.884;2023-03-21T05:10:07;307.30;2304.00
55329;DHT22;41205;44.264;19.884;2023-03-21T05:12:34;307.40;2304.00
55329;DHT22;41205;44.264;19.884;2023-03-21T05:14:59;307.30;2304.00
55329;DHT22;41205;44.264;19.884;2023-03-21T05:17:25;307.40;2304.00
55329;DHT22;41205;44.264;19.884;2023-03-21T05:19:53;307.30;2304.00
55329;DHT22;41205;44.264;19.884;2023-03-21T05:22:22;307.30;2304.00
55329;DHT22;41205;44.264;19.884;2023-03-21T05:24:49;307.30;2304.00
55329;DHT22;41205;44.264;19.884;2023-03-21T05:27:16;307.40;2304.00
55329;DHT22;41205;44.264;19.884;2023-03-21T05:30:03;307.50;2304.00
55329;DHT22;41205;44.264;19.884;2023-03-21T05:32:29;307.70;2304.00
55329;DHT22;41205;44.264;19.884;2023-03-21T05:34:55;307.60;2304.00
55329;DHT22;41205;44.264;19.884;2023-03-21T05:37:21;307.60;2304.00
55329;DHT22;41205;44.264;19.884;2023-03-21T05:39:46;307.60;2304.00
55329;DHT22;41205;44.264;19.884;2023-03-21T05:42:12;307.70;2304.00
55329;DHT22;41205;44.264;19.884;2023-03-21T05:44:38;307.80;2304.00
55329;DHT22;41205;44.264;19.884;2023-03-21T05:47:05;307.90;2304.00
55329;DHT22;41205;44.264;19.884;2023-03-21T05:49:31;307.90;2304.00
55329;DHT22;41205;44.264;19.884;2023-03-21T05:51:57;307.90;2304.00
55329;DHT22;41205;44.264;19.884;2023-03-21T05:54:23;308.00;2304.00
55329;DHT22;41205;44.264;19.884;2023-03-21T05:56:49;308.10;2304.00
55329;DHT22;41205;44.264;19.884;2023-03-21T05:59:15;332.80;2329.60
55329;DHT22;41205;44.264;19.884;2023-03-21T06:01:41;308.10;2304.00
55329;DHT22;41205;44.264;19.884;2023-03-21T06:04:07;332.80;2329.60
55329;DHT22;41205;44.264;19.884;2023-03-21T06:06:32;332.90;2329.60
55329;DHT22;41205;44.264;19.884;2023-03-21T06:08:58;332.90;2329.60
55329;DHT22;41205;44.264;19.884;2023-03-21T06:11:36;333.00;2329.60
55329;DHT22;41205;44.264;19.884;2023-03-21T06:14:02;333.20;2329.60
55329;DHT22;41205;44.264;19.884;2023-03-21T06:16:28;333.20;2329.60
55329;DHT22;41205;44.264;19.884;2023-03-21T06:18:54;333.20;2329.60
55329;DHT22;41205;44.264;19.884;2023-03-21T06:21:21;333.30;2329.60
55329;DHT22;41205;44.264;19.884;2023-03-21T06:23:46;333.40;2329.60
55329;DHT22;41205;44.264;19.884;2023-03-21T06:26:13;358.40;2329.60
55329;DHT22;41205;44.264;19.884;2023-03-21T06:28:38;358.50;2329.60
55329;DHT22;41205;44.264;19.884;2023-03-21T06:31:04;358.60;2329.60
55329;DHT22;41205;44.264;19.884;2023-03-21T06:33:30;358.70;2329.60
55329;DHT22;41205;44.264;19.884;2023-03-21T06:35:57;358.70;2329.60
55329;DHT22;41205;44.264;19.884;2023-03-21T06:38:24;358.80;2329.60
55329;DHT22;41205;44.264;19.884;2023-03-21T06:40:50;359.00;2329.60
55329;DHT22;41205;44.264;19.884;2023-03-21T06:43:16;359.30;2329.60
55329;DHT22;41205;44.264;19.884;2023-03-21T06:45:42;384.30;2329.60
55329;DHT22;41205;44.264;19.884;2023-03-21T06:48:08;384.70;2329.60
55329;DHT22;41205;44.264;19.884;2023-03-21T06:50:34;384.90;2329.60
55329;DHT22;41205;44.264;19.884;2023-03-21T06:53:00;410.50;2329.60
55329;DHT22;41205;44.264;19.884;2023-03-21T06:55:26;435.80;2201.60
55329;DHT22;41205;44.264;19.884;2023-03-21T06:57:54;460.90;2176.00
55329;DHT22;41205;44.264;19.884;2023-03-21T07:00:21;460.90;2124.80
55329;DHT22;41205;44.264;19.884;2023-03-21T07:02:47;461.20;2099.20
55329;DHT22;41205;44.264;19.884;2023-03-21T07:05:13;461.70;2048.00
55329;DHT22;41205;44.264;19.884;2023-03-21T07:07:39;461.70;2022.40
55329;DHT22;41205;44.264;19.884;2023-03-21T07:10:05;461.40;2022.40
55329;DHT22;41205;44.264;19.884;2023-03-21T07:12:31;461.10;2048.00
55329;DHT22;41205;44.264;19.884;2023-03-21T07:14:59;461.10;2048.00
55329;DHT22;41205;44.264;19.884;2023-03-21T07:17:25;461.00;2048.00
55329;DHT22;41205;44.264;19.884;2023-03-21T07:19:51;436.00;2073.60
55329;DHT22;41205;44.264;19.884;2023-03-21T07:22:16;436.10;2073.60
55329;DHT22;41205;44.264;19.884;2023-03-21T07:24:42;460.80;2099.20
55329;DHT22;41205;44.264;19.884;2023-03-21T07:27:08;460.80;2073.60
55329;DHT22;41205;44.264;19.884;2023-03-21T07:29:34;461.00;2073.60
55329;DHT22;41205;44.264;19.884;2023-03-21T07:32:00;460.90;2099.20
55329;DHT22;41205;44.264;19.884;2023-03-21T07:34:26;461.10;2073.60
55329;DHT22;41205;44.264;19.884;2023-03-21T07:36:56;461.00;2073.60
55329;DHT22;41205;44.264;19.884;2023-03-21T07:39:22;460.90;2099.20
55329;DHT22;41205;44.264;19.884;2023-03-21T07:41:48;460.80;2073.60
55329;DHT22;41205;44.264;19.884;2023-03-21T07:44:13;435.90;2048.00
55329;DHT22;41205;44.264;19.884;2023-03-21T07:46:40;435.80;2099.20
55329;DHT22;41205;44.264;19.884;2023-03-21T07:49:05;435.40;2124.80
55329;DHT22;41205;44.264;19.884;2023-03-21T07:51:33;435.40;2124.80
55329;DHT22;41205;44.264;19.884;2023-03-21T07:54:00;435.50;2150.40
55329;DHT22;41205;44.264;19.884;2023-03-21T07:56:27;435.50;2124.80
55329;DHT22;41205;44.264;19.884;2023-03-21T07:58:52;435.50;2124.80
55329;DHT22;41205;44.264;19.884;2023-03-21T08:01:18;435.30;2150.40
55329;DHT22;41205;44.264;19.884;2023-03-21T08:03:44;435.40;2176.00
55329;DHT22;41205;44.264;19.884;2023-03-21T08:06:10;435.50;2150.40
55329;DHT22;41205;44.264;19.884;2023-03-21T08:08:36;435.50;2124.80
55329;DHT22;41205;44.264;19.884;2023-03-21T08:11:03;435.60;2124.80
55329;DHT22;41205;44.264;19.884;2023-03-21T08:13:29;435.60;2124.80
55329;DHT22;41205;44.264;19.884;2023-03-21T08:15:55;435.70;2150.40
55329;DHT22;41205;44.264;19.884;2023-03-21T08:18:20;435.90;2099.20
55329;DHT22;41205;44.264;19.884;2023-03-21T08:20:53;436.00;2099.20
55329;DHT22;41205;44.264;19.884;2023-03-21T08:23:19;460.80;2099.20
55329;DHT22;41205;44.264;19.884;2023-03-21T08:25:49;461.00;2048.00
55329;DHT22;41205;44.264;19.884;2023-03-21T08:28:16;461.50;2022.40
55329;DHT22;41205;44.264;19.884;2023-03-21T08:30:42;461.50;1996.80
55329;DHT22;41205;44.264;19.884;2023-03-21T08:33:07;461.50;2022.40
55329;DHT22;41205;44.264;19.884;2023-03-21T08:35:33;461.70;1971.20
55329;DHT22;41205;44.264;19.884;2023-03-21T08:38:01;486.50;1945.60
55329;DHT22;41205;44.264;19.884;2023-03-21T08:40:27;486.90;1920.00
55329;DHT22;41205;44.264;19.884;2023-03-21T08:42:53;512.00;1868.80
55329;DHT22;41205;44.264;19.884;2023-03-21T08:45:19;487.20;1868.80
55329;DHT22;41205;44.264;19.884;2023-03-21T08:47:45;512.30;1868.80
55329;DHT22;41205;44.264;19.884;2023-03-21T08:50:14;537.80;1843.20
55329;DHT22;41205;44.264;19.884;2023-03-21T08:52:40;537.80;1792.00
55329;DHT22;41205;44.264;19.884;2023-03-21T08:55:06;512.90;1766.40
55329;DHT22;41205;44.264;19.884;2023-03-21T08:57:33;537.90;1766.40
55329;DHT22;41205;44.264;19.884;2023-03-21T08:59:59;538.00;1766.40
55329;DHT22;41205;44.264;19.884;2023-03-21T09:02:25;538.30;1740.80
55329;DHT22;41205;44.264;19.884;2023-03-21T09:04:51;538.40;1715.20
55329;DHT22;41205;44.264;19.884;2023-03-21T09:07:23;538.10;1715.20
55329;DHT22;41205;44.264;19.884;2023-03-21T09:09:51;538.00;1715.20
55329;DHT22;41205;44.264;19.884;2023-03-21T09:12:18;537.80;1715.20
55329;DHT22;41205;44.264;19.884;2023-03-21T09:14:44;537.80;1715.20
55329;DHT22;41205;44.264;19.884;2023-03-21T09:17:09;537.80;1689.60
55329;DHT22;41205;44.264;19.884;2023-03-21T09:19:36;537.70;1715.20
55329;DHT22;41205;44.264;19.884;2023-03-21T09:22:03;512.90;1740.80
55329;DHT22;41205;44.264;19.884;2023-03-21T09:24:29;512.80;1740.80
55329;DHT22;41205;44.264;19.884;2023-03-21T09:26:55;512.80;1740.80
55329;DHT22;41205;44.264;19.884;2023-03-21T09:29:21;512.90;1766.40
55329;DHT22;41205;44.264;19.884;2023-03-21T09:31:47;512.60;1715.20
55329;DHT22;41205;44.264;19.884;2023-03-21T09:34:14;512.50;1740.80
55329;DHT22;41205;44.264;19.884;2023-03-21T09:36:40;512.10;1817.60
55329;DHT22;41205;44.264;19.884;2023-03-21T09:39:06;487.30;1817.60
55329;DHT22;41205;44.264;19.884;2023-03-21T09:47:02;512.20;1766.40
55329;DHT22;41205;44.264;19.884;2023-03-21T09:49:33;512.50;1766.40
55329;DHT22;41205;44.264;19.884;2023-03-21T09:52:02;537.60;1766.40
55329;DHT22;41205;44.264;19.884;2023-03-21T09:54:35;537.90;1740.80
55329;DHT22;41205;44.264;19.884;2023-03-21T09:57:24;538.00;1740.80
55329;DHT22;41205;44.264;19.884;2023-03-21T09:59:51;538.00;1740.80
55329;DHT22;41205;44.264;19.884;2023-03-21T10:02:33;538.00;1715.20
55329;DHT22;41205;44.264;19.884;2023-03-21T10:05:03;538.10;1715.20
55329;DHT22;41205;44.264;19.884;2023-03-21T10:07:41;538.30;1715.20
55329;DHT22;41205;44.264;19.884;2023-03-21T10:10:15;563.30;1715.20
55329;DHT22;41205;44.264;19.884;2023-03-21T10:12:43;563.50;1689.60
55329;DHT22;41205;44.264;19.884;2023-03-21T10:15:16;563.40;1715.20
55329;DHT22;41205;44.264;19.884;2023-03-21T10:17:43;563.40;1689.60
55329;DHT22;41205;44.264;19.884;2023-03-21T10:20:32;538.00;1689.60
55329;DHT22;41205;44.264;19.884;2023-03-21T10:23:00;537.80;1715.20
55329;DHT22;41205;44.264;19.884;2023-03-21T10:25:35;538.40;1664.00
55329;DHT22;41205;44.264;19.884;2023-03-21T10:28:03;538.40;1689.60
55329;DHT22;41205;44.264;19.884;2023-03-21T10:30:57;563.30;1689.60
55329;DHT22;41205;44.264;19.884;2023-03-21T10:33:28;563.60;1638.40
55329;DHT22;41205;44.264;19.884;2023-03-21T10:36:02;563.60;1689.60
55329;DHT22;41205;44.264;19.884;2023-03-21T10:38:29;563.40;1664.00
55329;DHT22;41205;44.264;19.884;2023-03-21T10:40:55;563.50;1664.00
55329;DHT22;41205;44.264;19.884;2023-03-21T10:45:51;563.20;1689.60
55329;DHT22;41205;44.264;19.884;2023-03-21T10:48:17;538.30;1689.60
55329;DHT22;41205;44.264;19.884;2023-03-21T10:50:46;538.30;1664.00
55329;DHT22;41205;44.264;19.884;2023-03-21T10:53:20;538.40;1715.20
55329;DHT22;41205;44.264;19.884;2023-03-21T10:55:49;538.50;1740.80
55329;DHT22;41205;44.264;19.884;2023-03-21T10:58:23;563.20;1715.20
55329;DHT22;41205;44.264;19.884;2023-03-21T11:01:14;538.50;1689.60
55329;DHT22;41205;44.264;19.884;2023-03-21T11:03:44;538.50;1689.60
55329;DHT22;41205;44.264;19.884;2023-03-21T11:06:26;538.30;1664.00
55329;DHT22;41205;44.264;19.884;2023-03-21T11:08:55;538.10;1664.00
55329;DHT22;41205;44.264;19.884;2023-03-21T11:11:27;512.60;1689.60
55329;DHT22;41205;44.264;19.884;2023-03-21T11:14:02;512.10;1740.80
55329;DHT22;41205;44.264;19.884;2023-03-21T11:16:42;512.50;1715.20
55329;DHT22;41205;44.264;19.884;2023-03-21T11:19:31;512.90;1715.20
55329;DHT22;41205;44.264;19.884;2023-03-21T11:21:58;537.80;1715.20
55329;DHT22;41205;44.264;19.884;2023-03-21T11:24:29;538.10;1664.00
55329;DHT22;41205;44.264;19.884;2023-03-21T11:26:56;538.00;1664.00
55329;DHT22;41205;44.264;19.884;2023-03-21T11:29:25;538.00;1664.00
55329;DHT22;41205;44.264;19.884;2023-03-21T11:31:51;538.00;1664.00
55329;DHT22;41205;44.264;19.884;2023-03-21T11:37:43;537.60;1715.20
55329;DHT22;41205;44.264;19.884;2023-03-21T11:40:23;512.80;1689.60
55329;DHT22;41205;44.264;19.884;2023-03-21T11:42:57;512.40;1715.20
55329;DHT22;41205;44.264;19.884;2023-03-21T11:45:24;512.40;1689.60
55329;DHT22;41205;44.264;19.884;2023-03-21T11:47:53;512.30;1715.20
55329;DHT22;41205;44.264;19.884;2023-03-21T11:50:33;512.30;1715.20
55329;DHT22;41205;44.264;19.884;2023-03-21T11:56:19;512.10;1715.20
55329;DHT22;41205;44.264;19.884;2023-03-21T12:04:30;487.10;1792.00
55329;DHT22;41205;44.264;19.884;2023-03-21T12:13:17;486.60;1843.20
55329;DHT22;41205;44.264;19.884;2023-03-21T12:23:45;486.40;1868.80
55329;DHT22;41205;44.264;19.884;2023-03-21T12:29:28;461.40;1894.40
55329;DHT22;41205;44.264;19.884;2023-03-21T12:37:46;461.30;1945.60
55329;DHT22;41205;44.264;19.884;2023-03-21T12:40:38;461.30;1945.60
55329;DHT22;41205;44.264;19.884;2023-03-21T12:46:04;461.20;1894.40
55329;DHT22;41205;44.264;19.884;2023-03-21T12:48:49;461.50;1920.00
55329;DHT22;41205;44.264;19.884;2023-03-21T12:51:23;486.40;1920.00
55329;DHT22;41205;44.264;19.884;2023-03-21T12:56:51;486.50;1920.00
55329;DHT22;41205;44.264;19.884;2023-03-21T13:01:49;461.50;1894.40
55329;DHT22;41205;44.264;19.884;2023-03-21T13:07:21;486.40;1817.60
55329;DHT22;41205;44.264;19.884;2023-03-21T13:09:47;486.80;1817.60
55329;DHT22;41205;44.264;19.884;2023-03-21T13:15:06;487.10;1792.00
55329;DHT22;41205;44.264;19.884;2023-03-21T13:18:38;487.10;1740.80
55329;DHT22;41205;44.264;19.884;2023-03-21T13:20:54;486.90;1792.00
55329;DHT22;41205;44.264;19.884;2023-03-21T13:23:22;486.90;1817.60
55329;DHT22;41205;44.264;19.884;2023-03-21T13:25:50;487.10;1792.00
55329;DHT22;41205;44.264;19.884;2023-03-21T13:28:25;487.30;1766.40
55329;DHT22;41205;44.264;19.884;2023-03-21T13:30:51;486.90;1766.40
55329;DHT22;41205;44.264;19.884;2023-03-21T13:33:23;487.00;1740.80
55329;DHT22;41205;44.264;19.884;2023-03-21T13:36:14;486.90;1766.40
55329;DHT22;41205;44.264;19.884;2023-03-21T13:38:40;486.40;1792.00
55329;DHT22;41205;44.264;19.884;2023-03-21T13:41:14;486.40;1792.00
55329;DHT22;41205;44.264;19.884;2023-03-21T13:51:43;486.70;1715.20
55329;DHT22;41205;44.264;19.884;2023-03-21T13:59:12;486.50;1766.40
55329;DHT22;41205;44.264;19.884;2023-03-21T14:04:39;486.60;1792.00
55329;DHT22;41205;44.264;19.884;2023-03-21T14:07:25;486.90;1792.00
55329;DHT22;41205;44.264;19.884;2023-03-21T14:09:55;486.80;1766.40
55329;DHT22;41205;44.264;19.884;2023-03-21T14:12:24;486.80;1766.40
55329;DHT22;41205;44.264;19.884;2023-03-21T14:15:05;486.80;1792.00
55329;DHT22;41205;44.264;19.884;2023-03-21T14:17:32;486.90;1766.40
55329;DHT22;41205;44.264;19.884;2023-03-21T14:22:48;487.00;1766.40
55329;DHT22;41205;44.264;19.884;2023-03-21T14:25:16;486.80;1792.00
55329;DHT22;41205;44.264;19.884;2023-03-21T14:27:45;486.70;1792.00
55329;DHT22;41205;44.264;19.884;2023-03-21T14:30:22;486.80;1792.00
55329;DHT22;41205;44.264;19.884;2023-03-21T14:32:48;486.70;1792.00
55329;DHT22;41205;44.264;19.884;2023-03-21T14:35:14;461.60;1817.60
55329;DHT22;41205;44.264;19.884;2023-03-21T14:37:44;461.50;1817.60
55329;DHT22;41205;44.264;19.884;2023-03-21T14:40:20;461.50;1817.60
55329;DHT22;41205;44.264;19.884;2023-03-21T14:42:48;461.70;1817.60
55329;DHT22;41205;44.264;19.884;2023-03-21T14:45:22;486.50;1792.00
55329;DHT22;41205;44.264;19.884;2023-03-21T14:48:12;486.60;1792.00
55329;DHT22;41205;44.264;19.884;2023-03-21T14:53:07;486.50;1766.40
55329;DHT22;41205;44.264;19.884;2023-03-21T14:55:41;486.50;1792.00
55329;DHT22;41205;44.264;19.884;2023-03-21T14:58:11;486.60;1766.40
55329;DHT22;41205;44.264;19.884;2023-03-21T15:00:37;486.80;1766.40
55329;DHT22;41205;44.264;19.884;2023-03-21T15:03:04;486.80;1766.40
55329;DHT22;41205;44.264;19.884;2023-03-21T15:05:31;486.40;1792.00
55329;DHT22;41205;44.264;19.884;2023-03-21T15:08:14;486.50;1817.60
55329;DHT22;41205;44.264;19.884;2023-03-21T15:10:41;486.50;1792.00
55329;DHT22;41205;44.264;19.884;2023-03-21T15:13:14;461.70;1817.60
55329;DHT22;41205;44.264;19.884;2023-03-21T15:15:41;461.50;1817.60
55329;DHT22;41205;44.264;19.884;2023-03-21T15:18:09;461.70;1868.80
55329;DHT22;41205;44.264;19.884;2023-03-21T15:20:38;461.50;1868.80
55329;DHT22;41205;44.264;19.884;2023-03-21T15:23:13;461.50;1843.20
55329;DHT22;41205;44.264;19.884;2023-03-21T15:25:42;461.30;1868.80
55329;DHT22;41205;44.264;19.884;2023-03-21T15:28:12;461.30;1843.20
55329;DHT22;41205;44.264;19.884;2023-03-21T15:30:50;461.40;1843.20
55329;DHT22;41205;44.264;19.884;2023-03-21T15:33:17;461.50;1868.80
55329;DHT22;41205;44.264;19.884;2023-03-21T15:35:48;461.40;1868.80
55329;DHT22;41205;44.264;19.884;2023-03-21T15:40:49;461.20;1843.20
55329;DHT22;41205;44.264;19.884;2023-03-21T15:43:17;461.20;1868.80
55329;DHT22;41205;44.264;19.884;2023-03-21T15:45:54;461.20;1894.40
55329;DHT22;41205;44.264;19.884;2023-03-21T15:48:27;461.20;1868.80
55329;DHT22;41205;44.264;19.884;2023-03-21T15:51:05;461.30;1868.80
55329;DHT22;41205;44.264;19.884;2023-03-21T15:53:33;461.20;1894.40
55329;DHT22;41205;44.264;19.884;2023-03-21T15:56:01;461.20;1894.40
55329;DHT22;41205;44.264;19.884;2023-03-21T15:58:36;461.20;1894.40
55329;DHT22;41205;44.264;19.884;2023-03-21T16:03:44;461.20;1868.80
55329;DHT22;41205;44.264;19.884;2023-03-21T16:09:09;461.20;1894.40
55329;DHT22;41205;44.264;19.884;2023-03-21T16:14:33;461.10;1894.40
55329;DHT22;41205;44.264;19.884;2023-03-21T16:16:59;461.00;1920.00
55329;DHT22;41205;44.264;19.884;2023-03-21T16:19:24;460.90;1920.00
55329;DHT22;41205;44.264;19.884;2023-03-21T16:21:53;460.80;1920.00
55329;DHT22;41205;44.264;19.884;2023-03-21T16:24:18;460.80;1920.00
55329;DHT22;41205;44.264;19.884;2023-03-21T16:26:46;460.80;1920.00
55329;DHT22;41205;44.264;19.884;2023-03-21T16:29:16;436.10;1894.40
55329;DHT22;41205;44.264;19.884;2023-03-21T16:31:42;436.00;1920.00
55329;DHT22;41205;44.264;19.884;2023-03-21T16:34:08;435.90;1920.00
55329;DHT22;41205;44.264;19.884;2023-03-21T16:36:37;435.80;1945.60
55329;DHT22;41205;44.264;19.884;2023-03-21T16:39:22;435.70;1971.20
55329;DHT22;41205;44.264;19.884;2023-03-21T16:41:49;435.60;1971.20
55329;DHT22;41205;44.264;19.884;2023-03-21T16:44:16;435.50;1971.20
55329;DHT22;41205;44.264;19.884;2023-03-21T16:46:42;435.40;1971.20
55329;DHT22;41205;44.264;19.884;2023-03-21T16:49:22;435.30;1971.20
55329;DHT22;41205;44.264;19.884;2023-03-21T16:51:49;435.30;1996.80
55329;DHT22;41205;44.264;19.884;2023-03-21T16:54:15;435.20;1996.80